createdAt,value
2022-12-22T00:02:10.520Z,9.55
2022-12-22T00:05:02.017Z,9.81
2022-12-22T00:07:48.615Z,9.65
2022-12-22T00:10:37.033Z,9.72
2022-12-22T00:13:24.188Z,9.77
2022-12-22T00:16:12.291Z,9.72
2022-12-22T00:18:58.984Z,9.64
2022-12-22T00:21:49.966Z,9.57
2022-12-22T00:24:36.553Z,9.56
2022-12-22T00:27:23.449Z,9.53
2022-12-22T00:30:10.144Z,9.64
2022-12-22T00:32:58.372Z,9.32
2022-12-22T00:35:45.086Z,9.43
2022-12-22T00:38:37.861Z,9.61
2022-12-22T00:41:25.143Z,9.72
2022-12-22T00:44:11.906Z,9.68
2022-12-22T00:47:01.605Z,9.88
2022-12-22T00:49:51.394Z,9.85
2022-12-22T00:52:40.516Z,9.66
2022-12-22T00:55:34.438Z,9.68
2022-12-22T00:58:23.029Z,9.74
2022-12-22T01:01:09.878Z,9.74
2022-12-22T01:03:56.518Z,9.67
2022-12-22T01:06:47.756Z,9.66
2022-12-22T01:09:34.858Z,9.65
2022-12-22T01:12:40.316Z,9.78
2022-12-22T01:15:33.547Z,9.66
2022-12-22T01:18:20.984Z,9.82
2022-12-22T01:21:10.015Z,9.75
2022-12-22T01:23:59.721Z,9.70
2022-12-22T01:26:46.456Z,9.72
2022-12-22T01:29:33.260Z,9.88
2022-12-22T01:32:20.057Z,9.83
2022-12-22T01:35:07.807Z,9.87
2022-12-22T01:37:54.467Z,9.57
2022-12-22T01:40:43.939Z,9.75
2022-12-22T01:43:37.212Z,9.69
2022-12-22T01:46:48.906Z,9.70
2022-12-22T01:49:54.231Z,9.55
2022-12-22T01:52:49.414Z,9.68
2022-12-22T01:55:41.664Z,9.65
2022-12-22T01:58:45.532Z,9.71
2022-12-22T02:01:32.998Z,9.66
2022-12-22T02:04:21.318Z,9.63
2022-12-22T02:07:11.285Z,9.45
2022-12-22T02:10:07.674Z,9.53
2022-12-22T02:13:16.183Z,9.29
2022-12-22T02:16:58.399Z,9.30
2022-12-22T02:20:22.510Z,9.49
2022-12-22T02:23:58.543Z,9.19
2022-12-22T02:26:48.056Z,9.69
2022-12-22T02:29:38.463Z,9.45
2022-12-22T02:32:26.565Z,9.38
2022-12-22T02:35:13.388Z,9.52
2022-12-22T02:38:11.350Z,9.24
2022-12-22T02:41:33.919Z,9.35
2022-12-22T02:44:36.977Z,9.39
2022-12-22T02:47:47.442Z,9.30
2022-12-22T02:50:51.662Z,8.86
2022-12-22T02:53:39.962Z,9.01
2022-12-22T02:56:29.467Z,9.18
2022-12-22T02:59:16.294Z,9.07
2022-12-22T03:02:05.399Z,9.24
2022-12-22T03:04:52.204Z,9.32
2022-12-22T03:07:38.765Z,8.96
2022-12-22T03:10:26.178Z,8.94
2022-12-22T03:13:12.930Z,9.19
2022-12-22T03:15:59.361Z,8.77
2022-12-22T03:18:47.483Z,9.04
2022-12-22T03:21:34.882Z,9.21
2022-12-22T03:24:22.320Z,9.30
2022-12-22T03:26:50.282Z,9.30
2022-12-22T03:29:19.347Z,9.48
2022-12-22T03:31:47.357Z,9.47
2022-12-22T03:34:15.722Z,9.56
2022-12-22T03:36:43.646Z,9.69
2022-12-22T03:39:11.946Z,9.58
2022-12-22T03:41:58.487Z,9.50
2022-12-22T03:44:45.128Z,9.36
2022-12-22T03:47:13.084Z,9.32
2022-12-22T03:49:41.573Z,9.42
2022-12-22T03:52:09.451Z,9.32
2022-12-22T03:54:38.878Z,9.30
2022-12-22T03:57:06.772Z,9.42
2022-12-22T03:59:35.126Z,9.59
2022-12-22T04:02:03.308Z,9.41
2022-12-22T04:04:31.882Z,9.41
2022-12-22T04:06:59.780Z,9.33
2022-12-22T04:09:29.620Z,9.44
2022-12-22T04:12:16.138Z,9.39
2022-12-22T04:14:44.511Z,9.66
2022-12-22T04:17:12.592Z,9.49
2022-12-22T04:19:40.802Z,9.47
2022-12-22T04:22:08.949Z,9.74
2022-12-22T04:24:38.243Z,9.72
2022-12-22T04:27:06.221Z,9.69
2022-12-22T04:29:35.511Z,9.61
2022-12-22T04:32:03.804Z,9.56
2022-12-22T04:34:32.091Z,9.54
2022-12-22T04:37:09.913Z,9.61
2022-12-22T04:39:43.760Z,9.56
2022-12-22T04:42:11.863Z,9.34
2022-12-22T04:44:41.422Z,9.38
2022-12-22T04:47:09.426Z,9.26
2022-12-22T04:49:37.781Z,9.42
2022-12-22T04:52:05.811Z,9.19
2022-12-22T04:54:35.167Z,9.20
2022-12-22T04:57:03.122Z,9.28
2022-12-22T04:59:31.991Z,9.43
2022-12-22T05:02:00.213Z,9.17
2022-12-22T05:04:28.685Z,9.40
2022-12-22T05:06:56.620Z,9.16
2022-12-22T05:09:24.930Z,9.19
2022-12-22T05:11:52.878Z,9.50
2022-12-22T05:14:21.141Z,9.43
2022-12-22T05:16:49.194Z,9.22
2022-12-22T05:19:17.641Z,9.42
2022-12-22T05:21:45.842Z,9.47
2022-12-22T05:24:14.499Z,9.40
2022-12-22T05:26:42.412Z,9.58
2022-12-22T05:29:11.745Z,9.59
2022-12-22T05:31:46.758Z,9.68
2022-12-22T05:34:15.689Z,9.59
2022-12-22T05:36:43.628Z,9.44
2022-12-22T05:39:11.936Z,9.59
2022-12-22T05:41:39.996Z,9.48
2022-12-22T05:44:08.332Z,9.62
2022-12-22T05:46:36.439Z,9.68
2022-12-22T05:49:06.051Z,9.45
2022-12-22T05:51:34.006Z,9.48
2022-12-22T05:54:03.839Z,9.37
2022-12-22T05:56:31.846Z,9.50
2022-12-22T05:59:00.056Z,9.33
2022-12-22T06:01:28.043Z,9.35
2022-12-22T06:04:00.373Z,9.49
2022-12-22T06:06:29.115Z,9.52
2022-12-22T06:08:58.484Z,9.58
2022-12-22T06:11:26.451Z,9.43
2022-12-22T06:13:54.740Z,9.52
2022-12-22T06:16:24.110Z,9.44
2022-12-22T06:18:53.562Z,9.35
2022-12-22T06:21:21.356Z,9.59
2022-12-22T06:23:49.506Z,9.48
2022-12-22T06:26:17.339Z,9.64
2022-12-22T06:28:45.517Z,9.66
2022-12-22T06:31:13.398Z,9.21
2022-12-22T06:33:43.297Z,9.47
2022-12-22T06:36:11.400Z,9.42
2022-12-22T06:38:40.759Z,9.45
2022-12-22T06:41:08.537Z,9.48
2022-12-22T06:43:37.218Z,9.48
2022-12-22T06:46:05.278Z,9.54
2022-12-22T06:48:34.531Z,9.55
2022-12-22T06:51:02.347Z,9.67
2022-12-22T06:53:31.048Z,9.73
2022-12-22T06:55:59.648Z,9.72
2022-12-22T06:58:27.763Z,9.83
2022-12-22T07:00:56.977Z,9.67
2022-12-22T07:03:25.390Z,9.72
2022-12-22T07:05:53.366Z,9.59
2022-12-22T07:08:21.535Z,9.49
2022-12-22T07:10:58.242Z,9.73
2022-12-22T07:13:32.906Z,9.74
2022-12-22T07:16:02.489Z,9.90
2022-12-22T07:18:39.638Z,9.67
2022-12-22T07:21:14.442Z,9.81
2022-12-22T07:23:42.814Z,9.80
2022-12-22T07:26:15.739Z,9.78
2022-12-22T07:28:45.189Z,9.65
2022-12-22T07:31:16.554Z,9.62
2022-12-22T07:33:44.816Z,9.61
2022-12-22T07:36:17.974Z,9.64
2022-12-22T07:38:49.131Z,9.64
2022-12-22T07:41:39.189Z,9.74
2022-12-22T07:44:09.567Z,9.74
2022-12-22T07:46:40.093Z,9.61
2022-12-22T07:49:27.420Z,9.58
2022-12-22T07:51:57.917Z,9.44
2022-12-22T07:54:29.392Z,9.46
2022-12-22T07:56:57.579Z,9.69
2022-12-22T07:59:26.351Z,9.73
2022-12-22T08:01:54.472Z,9.62
2022-12-22T08:04:22.829Z,9.50
2022-12-22T08:06:50.709Z,9.60
2022-12-22T08:09:21.825Z,9.77
2022-12-22T08:11:50.438Z,9.85
2022-12-22T08:14:18.591Z,9.77
2022-12-22T08:16:46.535Z,9.90
2022-12-22T08:19:14.799Z,9.78
2022-12-22T08:21:48.563Z,9.58
2022-12-22T08:24:21.387Z,9.55
2022-12-22T08:26:53.768Z,9.66
2022-12-22T08:29:44.255Z,9.69
2022-12-22T08:32:13.692Z,9.72
2022-12-22T08:34:42.307Z,9.51
2022-12-22T08:37:15.810Z,9.60
2022-12-22T08:39:44.597Z,9.67
2022-12-22T08:42:16.260Z,9.75
2022-12-22T08:44:46.234Z,9.77
2022-12-22T08:47:17.075Z,9.66
2022-12-22T08:49:45.763Z,9.60
2022-12-22T08:52:18.342Z,9.71
2022-12-22T08:54:48.750Z,9.49
2022-12-22T08:57:16.578Z,9.48
2022-12-22T08:59:44.815Z,9.46
2022-12-22T09:02:12.705Z,9.55
2022-12-22T09:04:41.937Z,9.60
2022-12-22T09:07:09.877Z,9.75
2022-12-22T09:09:39.309Z,9.85
2022-12-22T09:12:07.737Z,9.76
2022-12-22T09:14:35.900Z,9.62
2022-12-22T09:17:03.778Z,9.57
2022-12-22T09:19:31.987Z,9.43
2022-12-22T09:21:59.861Z,9.70
2022-12-22T09:24:27.952Z,9.40
2022-12-22T09:26:55.800Z,9.68
2022-12-22T09:29:24.118Z,9.61
2022-12-22T09:31:51.977Z,9.99
2022-12-22T09:34:20.198Z,9.82
2022-12-22T09:36:48.259Z,9.65
2022-12-22T09:39:17.134Z,9.61
2022-12-22T09:41:44.995Z,9.87
2022-12-22T09:44:24.931Z,9.97
2022-12-22T09:46:58.501Z,10.11
2022-12-22T09:49:26.777Z,10.05
2022-12-22T09:51:58.353Z,9.97
2022-12-22T09:54:28.099Z,10.16
2022-12-22T09:56:57.592Z,10.43
2022-12-22T09:59:28.976Z,10.14
2022-12-22T10:02:04.223Z,10.19
2022-12-22T10:04:41.566Z,10.15
2022-12-22T10:07:38.691Z,10.16
2022-12-22T10:10:08.359Z,10.29
2022-12-22T10:12:36.226Z,10.06
2022-12-22T10:15:15.456Z,10.11
2022-12-22T10:17:46.578Z,10.23
2022-12-22T10:20:29.895Z,10.37
2022-12-22T10:23:24.970Z,10.07
2022-12-22T10:29:09.261Z,10.49
2022-12-22T10:31:58.436Z,10.35
2022-12-22T10:34:27.871Z,10.35
2022-12-22T10:37:03.428Z,10.09
2022-12-22T10:39:35.201Z,10.12
2022-12-22T10:42:14.778Z,10.14
2022-12-22T10:44:48.394Z,10.54
2022-12-22T10:47:21.653Z,10.46
2022-12-22T10:52:31.883Z,10.20
2022-12-22T10:55:19.669Z,10.16
2022-12-22T10:57:49.611Z,9.99
2022-12-22T11:00:32.806Z,10.30
2022-12-22T11:03:03.938Z,10.25
2022-12-22T11:05:33.286Z,10.45
2022-12-22T11:08:15.062Z,10.44
2022-12-22T11:11:08.163Z,10.30
2022-12-22T11:13:55.512Z,10.61
2022-12-22T11:16:49.903Z,10.42
2022-12-22T11:19:56.593Z,10.54
2022-12-22T11:22:34.015Z,10.75
2022-12-22T11:25:20.547Z,10.93
2022-12-22T11:28:22.000Z,10.64
2022-12-22T11:30:55.861Z,10.74
2022-12-22T11:33:48.752Z,10.63
2022-12-22T11:36:51.910Z,10.70
2022-12-22T11:39:40.734Z,10.77
2022-12-22T11:42:39.077Z,11.03
2022-12-22T11:45:30.052Z,10.95
2022-12-22T11:48:31.652Z,11.40
2022-12-22T11:51:13.801Z,11.61
2022-12-22T11:53:58.221Z,11.66
2022-12-22T11:56:47.082Z,11.65
2022-12-22T11:59:39.920Z,11.73
2022-12-22T12:02:37.017Z,11.93
2022-12-22T12:05:17.236Z,12.37
2022-12-22T12:07:53.936Z,12.53
2022-12-22T12:10:27.921Z,12.69
2022-12-22T12:13:26.444Z,12.52
2022-12-22T12:16:20.220Z,12.12
2022-12-22T12:19:12.312Z,12.14
2022-12-22T12:21:59.375Z,11.71
2022-12-22T12:24:40.892Z,11.26
2022-12-22T12:27:45.646Z,11.76
2022-12-22T12:33:36.654Z,11.22
2022-12-22T12:36:26.870Z,11.81
2022-12-22T12:39:17.501Z,11.72
2022-12-22T12:41:48.844Z,11.67
2022-12-22T12:44:21.582Z,11.65
2022-12-22T12:46:53.188Z,11.37
2022-12-22T12:49:36.484Z,11.58
2022-12-22T12:52:10.352Z,11.18
2022-12-22T12:54:43.751Z,11.09
2022-12-22T12:57:14.876Z,10.84
2022-12-22T12:59:42.826Z,10.82
2022-12-22T13:02:34.711Z,10.92
2022-12-22T13:05:12.425Z,11.06
2022-12-22T13:08:15.808Z,11.43
2022-12-22T13:10:45.846Z,11.17
2022-12-22T13:13:35.007Z,10.95
2022-12-22T13:16:03.236Z,10.95
2022-12-22T13:18:35.480Z,11.15
2022-12-22T13:26:48.077Z,10.98
2022-12-22T13:29:26.579Z,11.33
2022-12-22T13:32:01.959Z,11.38
2022-12-22T13:35:29.820Z,11.03
2022-12-22T13:37:49.123Z,11.64
2022-12-22T13:40:21.997Z,11.13
2022-12-22T13:43:01.258Z,11.46
2022-12-22T13:45:37.525Z,11.28
2022-12-22T13:48:13.105Z,11.28
2022-12-22T13:51:24.789Z,11.13
2022-12-22T13:54:09.014Z,11.48
2022-12-22T13:56:53.441Z,11.34
2022-12-22T13:59:40.796Z,11.12
2022-12-22T14:02:09.164Z,10.92
2022-12-22T14:04:40.895Z,10.81
2022-12-22T14:07:21.636Z,10.92
2022-12-22T14:09:52.114Z,10.89
2022-12-22T14:12:25.858Z,10.61
2022-12-22T14:14:57.454Z,10.56
2022-12-22T14:17:29.043Z,10.66
2022-12-22T14:20:03.340Z,10.72
2022-12-22T14:22:40.609Z,10.90
2022-12-22T14:25:24.094Z,10.82
2022-12-22T14:27:57.624Z,10.71
2022-12-22T14:30:37.831Z,10.50
2022-12-22T14:33:28.666Z,10.29
2022-12-22T14:36:23.429Z,10.62
2022-12-22T14:38:59.079Z,10.37
2022-12-22T14:41:42.104Z,10.28
2022-12-22T14:44:16.714Z,10.83
2022-12-22T14:46:45.832Z,10.84
2022-12-22T14:49:18.518Z,10.78
2022-12-22T14:52:01.004Z,10.99
2022-12-22T14:54:30.028Z,10.85
2022-12-22T14:57:15.721Z,11.20
2022-12-22T15:00:09.804Z,11.39
2022-12-22T15:02:41.095Z,11.38
2022-12-22T15:05:17.397Z,11.42
2022-12-22T15:08:06.569Z,11.13
2022-12-22T15:10:44.649Z,11.18
2022-12-22T15:13:24.301Z,11.32
2022-12-22T15:15:52.982Z,11.35
2022-12-22T15:18:26.108Z,11.41
2022-12-22T15:20:56.850Z,10.84
2022-12-22T15:23:25.252Z,10.66
2022-12-22T15:25:54.120Z,10.72
2022-12-22T15:28:22.091Z,10.66
2022-12-22T15:30:50.334Z,10.66
2022-12-22T15:33:19.924Z,10.81
2022-12-22T15:35:48.269Z,11.00
2022-12-22T15:38:22.241Z,10.81
2022-12-22T15:40:52.003Z,10.86
2022-12-22T15:43:55.942Z,11.23
2022-12-22T15:46:11.410Z,11.28
2022-12-22T15:48:40.197Z,11.30
2022-12-22T15:51:27.626Z,11.17
2022-12-22T15:53:58.012Z,11.29
2022-12-22T15:56:28.733Z,11.25
2022-12-22T15:58:57.501Z,11.02
2022-12-22T16:01:25.814Z,11.15
2022-12-22T16:03:53.810Z,11.20
2022-12-22T16:06:22.191Z,11.24
2022-12-22T16:08:53.670Z,11.31
2022-12-22T16:11:24.016Z,11.09
2022-12-22T16:13:52.618Z,11.41
2022-12-22T16:16:21.065Z,11.47
2022-12-22T16:18:49.052Z,11.37
2022-12-22T16:21:21.187Z,11.45
2022-12-22T16:23:50.692Z,11.28
2022-12-22T16:26:20.896Z,11.41
2022-12-22T16:28:48.994Z,11.08
2022-12-22T16:31:25.285Z,11.10
2022-12-22T16:33:53.202Z,11.28
2022-12-22T16:36:21.339Z,11.28
2022-12-22T16:38:49.243Z,11.42
2022-12-22T16:41:25.124Z,11.43
2022-12-22T16:46:45.648Z,11.56
2022-12-22T16:49:22.938Z,11.56
2022-12-22T16:51:56.080Z,11.37
2022-12-22T16:54:24.061Z,11.28
2022-12-22T16:56:52.224Z,11.26
2022-12-22T16:59:20.187Z,11.23
2022-12-22T17:01:53.763Z,11.23
2022-12-22T17:04:30.939Z,11.34
2022-12-22T17:07:01.004Z,11.47
2022-12-22T17:09:42.730Z,11.54
2022-12-22T17:12:21.981Z,11.55
2022-12-22T17:14:50.832Z,11.35
2022-12-22T17:17:30.864Z,11.45
2022-12-22T17:19:59.879Z,11.48
2022-12-22T17:22:31.191Z,11.39
2022-12-22T17:25:05.828Z,11.53
2022-12-22T17:27:35.381Z,11.51
2022-12-22T17:30:04.323Z,11.36
2022-12-22T17:32:32.473Z,11.39
2022-12-22T17:35:00.815Z,11.33
2022-12-22T17:37:29.151Z,11.49
2022-12-22T17:40:02.562Z,11.41
2022-12-22T17:42:32.616Z,11.55
2022-12-22T17:45:00.787Z,11.48
2022-12-22T17:47:34.796Z,11.54
2022-12-22T17:50:08.339Z,11.58
2022-12-22T17:52:36.482Z,11.54
2022-12-22T17:55:05.326Z,11.42
2022-12-22T17:57:35.760Z,11.19
2022-12-22T18:00:04.770Z,11.21
2022-12-22T18:02:40.084Z,11.20
2022-12-22T18:05:15.804Z,11.19
2022-12-22T18:07:45.898Z,11.35
2022-12-22T18:10:30.821Z,11.24
2022-12-22T18:13:01.249Z,11.23
2022-12-22T18:15:30.819Z,11.14
2022-12-22T18:18:00.501Z,11.34
2022-12-22T18:20:29.470Z,11.35
2022-12-22T18:23:02.318Z,11.37
2022-12-22T18:25:32.687Z,11.26
2022-12-22T18:28:01.069Z,11.28
2022-12-22T18:30:30.367Z,11.03
2022-12-22T18:32:58.689Z,10.94
2022-12-22T18:35:28.202Z,11.07
2022-12-22T18:37:58.464Z,11.03
2022-12-22T18:40:28.642Z,11.09
2022-12-22T18:42:58.375Z,11.05
2022-12-22T18:45:28.871Z,11.15
2022-12-22T18:47:57.901Z,11.08
2022-12-22T18:50:29.240Z,11.09
2022-12-22T18:53:02.364Z,10.82
2022-12-22T18:55:33.365Z,10.89
2022-12-22T18:58:02.907Z,10.95
2022-12-22T19:00:36.409Z,11.18
2022-12-22T19:03:18.992Z,11.14
2022-12-22T19:05:47.898Z,11.03
2022-12-22T19:08:18.761Z,11.11
2022-12-22T19:11:04.172Z,10.93
2022-12-22T19:13:42.809Z,10.91
2022-12-22T19:16:16.639Z,11.20
2022-12-22T19:18:45.104Z,10.98
2022-12-22T19:21:17.638Z,11.20
2022-12-22T19:23:46.101Z,11.02
2022-12-22T19:26:23.671Z,10.93
2022-12-22T19:29:00.640Z,11.01
2022-12-22T19:31:33.828Z,11.09
2022-12-22T19:34:11.414Z,11.24
2022-12-22T19:36:39.488Z,11.04
2022-12-22T19:39:07.852Z,11.09
2022-12-22T19:41:53.185Z,11.13
2022-12-22T19:44:26.168Z,10.96
2022-12-22T19:46:55.814Z,11.07
2022-12-22T19:49:27.472Z,11.12
2022-12-22T19:51:56.931Z,11.10
2022-12-22T19:54:25.480Z,11.06
2022-12-22T19:56:56.239Z,10.87
2022-12-22T19:59:46.754Z,10.85
2022-12-22T20:02:30.796Z,10.82
2022-12-22T20:05:00.480Z,10.78
2022-12-22T20:07:30.838Z,10.84
2022-12-22T20:10:00.565Z,10.82
2022-12-22T20:12:32.642Z,10.78
2022-12-22T20:15:02.584Z,10.74
2022-12-22T20:17:30.700Z,10.82
2022-12-22T20:19:59.001Z,10.86
2022-12-22T20:22:27.539Z,10.87
2022-12-22T20:24:56.037Z,10.89
2022-12-22T20:27:32.023Z,11.08
2022-12-22T20:30:00.433Z,11.36
2022-12-22T20:32:28.802Z,11.43
2022-12-22T20:34:57.414Z,11.38
2022-12-22T20:37:25.725Z,11.36
2022-12-22T20:39:54.032Z,11.41
2022-12-22T20:42:24.744Z,11.35
2022-12-22T20:45:02.225Z,11.30
2022-12-22T20:47:33.929Z,11.28
2022-12-22T20:50:02.334Z,11.25
2022-12-22T20:52:30.353Z,11.17
2022-12-22T20:54:58.672Z,11.03
2022-12-22T20:57:27.720Z,11.25
2022-12-22T20:59:56.904Z,11.33
2022-12-22T21:02:30.082Z,11.26
2022-12-22T21:04:59.582Z,11.17
2022-12-22T21:07:27.579Z,11.28
2022-12-22T21:09:55.963Z,11.16
2022-12-22T21:12:23.936Z,11.17
2022-12-22T21:14:53.473Z,11.20
2022-12-22T21:17:21.652Z,11.27
2022-12-22T21:19:50.116Z,11.37
2022-12-22T21:22:18.739Z,11.42
2022-12-22T21:24:47.199Z,11.16
2022-12-22T21:27:20.736Z,11.24
2022-12-22T21:29:50.141Z,11.14
2022-12-22T21:32:18.171Z,11.22
2022-12-22T21:34:46.554Z,11.39
2022-12-22T21:37:20.190Z,11.31
2022-12-22T21:39:48.707Z,11.25
2022-12-22T21:42:20.007Z,11.24
2022-12-22T21:44:48.554Z,11.22
2022-12-22T21:47:20.840Z,11.38
2022-12-22T21:49:49.483Z,11.36
2022-12-22T21:52:17.525Z,11.21
2022-12-22T21:54:45.835Z,11.29
2022-12-22T21:57:18.369Z,11.32
2022-12-22T21:59:46.805Z,11.08
2022-12-22T22:02:17.720Z,11.13
2022-12-22T22:04:54.247Z,11.08
2022-12-22T22:07:23.704Z,11.08
2022-12-22T22:09:52.026Z,11.07
2022-12-22T22:12:37.537Z,11.20
2022-12-22T22:15:08.318Z,11.17
2022-12-22T22:17:36.987Z,11.07
2022-12-22T22:20:07.593Z,11.21
2022-12-22T22:22:35.835Z,11.25
2022-12-22T22:25:04.792Z,11.10
2022-12-22T22:27:32.880Z,11.16
2022-12-22T22:30:01.226Z,11.33
2022-12-22T22:32:29.378Z,11.19
2022-12-22T22:34:57.794Z,11.20
2022-12-22T22:37:25.740Z,11.19
2022-12-22T22:39:54.086Z,11.07
2022-12-22T22:42:22.214Z,11.15
2022-12-22T22:44:51.567Z,11.19
2022-12-22T22:47:19.646Z,11.11
2022-12-22T22:49:47.980Z,11.21
2022-12-22T22:52:16.074Z,11.32
2022-12-22T22:54:44.350Z,11.02
2022-12-22T22:57:12.437Z,11.23
2022-12-22T22:59:40.802Z,11.29
2022-12-22T23:02:11.256Z,11.14
2022-12-22T23:04:39.803Z,11.32
2022-12-22T23:07:07.811Z,11.27
2022-12-22T23:09:36.168Z,11.27
2022-12-22T23:12:04.492Z,11.34
2022-12-22T23:14:32.829Z,11.30
2022-12-22T23:17:00.936Z,11.26
2022-12-22T23:19:29.402Z,11.42
2022-12-22T23:21:57.687Z,11.37
2022-12-22T23:24:26.591Z,11.34
2022-12-22T23:26:55.381Z,11.05
2022-12-22T23:29:23.741Z,11.03
2022-12-22T23:31:51.872Z,11.04
2022-12-22T23:34:20.190Z,11.08
2022-12-22T23:36:48.188Z,11.19
2022-12-22T23:39:16.494Z,10.92
2022-12-22T23:41:44.693Z,10.84
2022-12-22T23:44:13.145Z,10.97
2022-12-22T23:46:41.372Z,10.97
2022-12-22T23:49:11.661Z,10.76
2022-12-22T23:51:40.766Z,10.89
2022-12-22T23:54:09.042Z,10.93
2022-12-22T23:56:37.152Z,10.81
2022-12-22T23:59:05.374Z,10.84
